sensor_id;sensor_type;location;lat;lon;timestamp;P1;durP1;ratioP1;P2;durP2;ratioP2
74908;SDS011;63468;52.058;4.824;2022-12-07T17:48:04;18.70;;;14.55;;
74908;SDS011;63468;52.058;4.824;2022-12-07T17:50:29;14.98;;;13.60;;
74908;SDS011;63468;52.058;4.824;2022-12-07T17:53:14;21.50;;;13.68;;
74908;SDS011;63468;52.058;4.824;2022-12-07T17:55:39;15.48;;;13.93;;
74908;SDS011;63468;52.058;4.824;2022-12-07T17:58:04;17.02;;;15.38;;
74908;SDS011;63468;52.058;4.824;2022-12-07T18:00:30;16.27;;;14.68;;
74908;SDS011;63468;52.058;4.824;2022-12-07T18:03:02;16.08;;;14.13;;
74908;SDS011;63468;52.058;4.824;2022-12-07T18:05:28;18.42;;;15.18;;
74908;SDS011;63468;52.058;4.824;2022-12-07T18:07:53;16.65;;;13.48;;
74908;SDS011;63468;52.058;4.824;2022-12-07T18:10:19;15.57;;;14.07;;
74908;SDS011;63468;52.058;4.824;2022-12-07T18:12:44;14.57;;;11.95;;
74908;SDS011;63468;52.058;4.824;2022-12-07T18:15:10;15.55;;;12.05;;
74908;SDS011;63468;52.058;4.824;2022-12-07T18:17:35;15.05;;;13.75;;
74908;SDS011;63468;52.058;4.824;2022-12-07T18:20:00;14.25;;;13.00;;
74908;SDS011;63468;52.058;4.824;2022-12-07T18:22:26;21.27;;;19.25;;
74908;SDS011;63468;52.058;4.824;2022-12-07T18:24:51;14.05;;;12.20;;
74908;SDS011;63468;52.058;4.824;2022-12-07T18:27:17;13.00;;;11.70;;
74908;SDS011;63468;52.058;4.824;2022-12-07T18:29:42;15.55;;;13.40;;
74908;SDS011;63468;52.058;4.824;2022-12-07T18:32:07;15.80;;;14.25;;
74908;SDS011;63468;52.058;4.824;2022-12-07T18:34:33;18.67;;;16.02;;
74908;SDS011;63468;52.058;4.824;2022-12-07T18:36:58;16.23;;;14.30;;
74908;SDS011;63468;52.058;4.824;2022-12-07T18:39:23;14.23;;;13.00;;
74908;SDS011;63468;52.058;4.824;2022-12-07T18:41:49;15.80;;;12.93;;
74908;SDS011;63468;52.058;4.824;2022-12-07T18:44:14;20.27;;;14.82;;
74908;SDS011;63468;52.058;4.824;2022-12-07T18:46:41;17.02;;;14.85;;
74908;SDS011;63468;52.058;4.824;2022-12-07T18:49:07;18.13;;;14.32;;
74908;SDS011;63468;52.058;4.824;2022-12-07T18:51:34;16.20;;;14.52;;
74908;SDS011;63468;52.058;4.824;2022-12-07T18:53:59;13.95;;;12.65;;
74908;SDS011;63468;52.058;4.824;2022-12-07T18:56:25;14.07;;;12.82;;
74908;SDS011;63468;52.058;4.824;2022-12-07T18:58:51;19.10;;;17.10;;
74908;SDS011;63468;52.058;4.824;2022-12-07T19:01:37;15.35;;;14.25;;
74908;SDS011;63468;52.058;4.824;2022-12-07T19:04:03;16.40;;;15.05;;
74908;SDS011;63468;52.058;4.824;2022-12-07T19:06:28;17.50;;;16.10;;
74908;SDS011;63468;52.058;4.824;2022-12-07T19:08:54;13.10;;;12.00;;
74908;SDS011;63468;52.058;4.824;2022-12-07T19:11:20;14.00;;;12.80;;
74908;SDS011;63468;52.058;4.824;2022-12-07T19:14:09;15.48;;;14.02;;
74908;SDS011;63468;52.058;4.824;2022-12-07T19:16:34;13.23;;;12.13;;
74908;SDS011;63468;52.058;4.824;2022-12-07T19:18:59;14.73;;;13.02;;
74908;SDS011;63468;52.058;4.824;2022-12-07T19:21:25;14.35;;;12.95;;
74908;SDS011;63468;52.058;4.824;2022-12-07T19:23:51;13.55;;;12.35;;
74908;SDS011;63468;52.058;4.824;2022-12-07T19:26:16;16.33;;;14.75;;
74908;SDS011;63468;52.058;4.824;2022-12-07T19:28:42;14.15;;;12.68;;
74908;SDS011;63468;52.058;4.824;2022-12-07T19:31:08;13.98;;;12.57;;
74908;SDS011;63468;52.058;4.824;2022-12-07T19:33:36;14.27;;;13.07;;
74908;SDS011;63468;52.058;4.824;2022-12-07T19:36:01;20.45;;;13.38;;
74908;SDS011;63468;52.058;4.824;2022-12-07T19:38:28;14.02;;;12.93;;
74908;SDS011;63468;52.058;4.824;2022-12-07T19:40:54;13.43;;;12.23;;
74908;SDS011;63468;52.058;4.824;2022-12-07T19:43:19;14.57;;;13.07;;
74908;SDS011;63468;52.058;4.824;2022-12-07T19:45:45;15.45;;;14.02;;
74908;SDS011;63468;52.058;4.824;2022-12-07T19:48:11;16.05;;;13.70;;
74908;SDS011;63468;52.058;4.824;2022-12-07T19:50:36;16.52;;;14.77;;
74908;SDS011;63468;52.058;4.824;2022-12-07T19:53:01;15.23;;;13.00;;
74908;SDS011;63468;52.058;4.824;2022-12-07T19:55:26;20.13;;;18.20;;
74908;SDS011;63468;52.058;4.824;2022-12-07T19:57:52;17.25;;;15.75;;
74908;SDS011;63468;52.058;4.824;2022-12-07T20:00:17;16.90;;;15.52;;
74908;SDS011;63468;52.058;4.824;2022-12-07T20:02:43;18.25;;;16.60;;
74908;SDS011;63468;52.058;4.824;2022-12-07T20:05:09;17.40;;;12.45;;
74908;SDS011;63468;52.058;4.824;2022-12-07T20:07:34;13.77;;;12.32;;
74908;SDS011;63468;52.058;4.824;2022-12-07T20:10:03;15.38;;;13.90;;
74908;SDS011;63468;52.058;4.824;2022-12-07T20:12:30;16.13;;;14.80;;
74908;SDS011;63468;52.058;4.824;2022-12-07T20:15:13;16.25;;;14.85;;
74908;SDS011;63468;52.058;4.824;2022-12-07T20:17:39;16.17;;;14.75;;
74908;SDS011;63468;52.058;4.824;2022-12-07T20:20:04;16.45;;;14.85;;
74908;SDS011;63468;52.058;4.824;2022-12-07T20:22:30;14.95;;;13.75;;
74908;SDS011;63468;52.058;4.824;2022-12-07T20:24:55;14.75;;;13.52;;
74908;SDS011;63468;52.058;4.824;2022-12-07T20:27:21;16.05;;;14.38;;
74908;SDS011;63468;52.058;4.824;2022-12-07T20:29:46;16.88;;;15.23;;
74908;SDS011;63468;52.058;4.824;2022-12-07T20:32:12;20.10;;;17.30;;
74908;SDS011;63468;52.058;4.824;2022-12-07T20:34:38;19.90;;;16.75;;
74908;SDS011;63468;52.058;4.824;2022-12-07T20:37:03;17.65;;;15.85;;
74908;SDS011;63468;52.058;4.824;2022-12-07T20:39:29;18.40;;;15.52;;
74908;SDS011;63468;52.058;4.824;2022-12-07T20:41:54;21.90;;;18.48;;
74908;SDS011;63468;52.058;4.824;2022-12-07T20:44:52;23.33;;;18.48;;
74908;SDS011;63468;52.058;4.824;2022-12-07T20:47:17;20.60;;;18.55;;
74908;SDS011;63468;52.058;4.824;2022-12-07T20:49:43;16.55;;;14.88;;
74908;SDS011;63468;52.058;4.824;2022-12-07T20:52:08;18.27;;;16.38;;
74908;SDS011;63468;52.058;4.824;2022-12-07T20:54:35;18.08;;;16.50;;
74908;SDS011;63468;52.058;4.824;2022-12-07T20:57:01;17.48;;;15.77;;
74908;SDS011;63468;52.058;4.824;2022-12-07T20:59:26;17.70;;;15.85;;
74908;SDS011;63468;52.058;4.824;2022-12-07T21:01:51;15.98;;;14.35;;
74908;SDS011;63468;52.058;4.824;2022-12-07T21:04:17;16.45;;;14.75;;
74908;SDS011;63468;52.058;4.824;2022-12-07T21:06:42;16.83;;;15.27;;
74908;SDS011;63468;52.058;4.824;2022-12-07T21:09:08;16.27;;;14.77;;
74908;SDS011;63468;52.058;4.824;2022-12-07T21:11:34;15.73;;;14.30;;
74908;SDS011;63468;52.058;4.824;2022-12-07T21:13:59;15.48;;;14.27;;
74908;SDS011;63468;52.058;4.824;2022-12-07T21:16:27;16.27;;;14.82;;
74908;SDS011;63468;52.058;4.824;2022-12-07T21:18:54;15.50;;;14.10;;
74908;SDS011;63468;52.058;4.824;2022-12-07T21:21:20;16.02;;;14.60;;
74908;SDS011;63468;52.058;4.824;2022-12-07T21:23:46;16.45;;;14.88;;
74908;SDS011;63468;52.058;4.824;2022-12-07T21:26:15;15.90;;;14.60;;
74908;SDS011;63468;52.058;4.824;2022-12-07T21:28:46;13.48;;;12.27;;
74908;SDS011;63468;52.058;4.824;2022-12-07T21:31:12;14.15;;;12.85;;
74908;SDS011;63468;52.058;4.824;2022-12-07T21:33:37;17.73;;;16.33;;
74908;SDS011;63468;52.058;4.824;2022-12-07T21:36:06;17.05;;;15.50;;
74908;SDS011;63468;52.058;4.824;2022-12-07T21:38:34;17.60;;;15.27;;
74908;SDS011;63468;52.058;4.824;2022-12-07T21:41:08;16.45;;;14.93;;
74908;SDS011;63468;52.058;4.824;2022-12-07T21:43:35;15.63;;;14.25;;
74908;SDS011;63468;52.058;4.824;2022-12-07T21:46:00;15.00;;;13.50;;
74908;SDS011;63468;52.058;4.824;2022-12-07T21:48:25;18.30;;;15.27;;
74908;SDS011;63468;52.058;4.824;2022-12-07T21:50:51;16.63;;;15.10;;
74908;SDS011;63468;52.058;4.824;2022-12-07T21:53:16;17.25;;;15.65;;
74908;SDS011;63468;52.058;4.824;2022-12-07T21:55:42;18.23;;;15.57;;
74908;SDS011;63468;52.058;4.824;2022-12-07T21:58:08;13.82;;;12.52;;
74908;SDS011;63468;52.058;4.824;2022-12-07T22:00:33;14.52;;;13.00;;
74908;SDS011;63468;52.058;4.824;2022-12-07T22:02:59;15.05;;;13.60;;
74908;SDS011;63468;52.058;4.824;2022-12-07T22:05:25;13.77;;;12.68;;
74908;SDS011;63468;52.058;4.824;2022-12-07T22:07:50;13.40;;;12.30;;
74908;SDS011;63468;52.058;4.824;2022-12-07T22:10:15;14.13;;;13.00;;
74908;SDS011;63468;52.058;4.824;2022-12-07T22:13:01;14.45;;;13.20;;
74908;SDS011;63468;52.058;4.824;2022-12-07T22:15:27;15.77;;;14.50;;
74908;SDS011;63468;52.058;4.824;2022-12-07T22:17:53;14.65;;;13.55;;
74908;SDS011;63468;52.058;4.824;2022-12-07T22:20:19;15.48;;;14.27;;
74908;SDS011;63468;52.058;4.824;2022-12-07T22:22:45;15.52;;;14.13;;
74908;SDS011;63468;52.058;4.824;2022-12-07T22:25:11;16.25;;;14.77;;
74908;SDS011;63468;52.058;4.824;2022-12-07T22:27:37;17.23;;;15.55;;
74908;SDS011;63468;52.058;4.824;2022-12-07T22:30:07;17.35;;;15.85;;
74908;SDS011;63468;52.058;4.824;2022-12-07T22:32:33;17.25;;;15.82;;
74908;SDS011;63468;52.058;4.824;2022-12-07T22:34:58;17.77;;;15.98;;
74908;SDS011;63468;52.058;4.824;2022-12-07T22:37:25;16.58;;;15.00;;
74908;SDS011;63468;52.058;4.824;2022-12-07T22:39:51;17.35;;;15.52;;
74908;SDS011;63468;52.058;4.824;2022-12-07T22:42:16;15.48;;;14.05;;
74908;SDS011;63468;52.058;4.824;2022-12-07T22:44:41;18.52;;;17.02;;
74908;SDS011;63468;52.058;4.824;2022-12-07T22:47:07;18.10;;;16.48;;
74908;SDS011;63468;52.058;4.824;2022-12-07T22:49:32;18.10;;;16.40;;
74908;SDS011;63468;52.058;4.824;2022-12-07T22:51:58;17.25;;;15.90;;
74908;SDS011;63468;52.058;4.824;2022-12-07T22:54:23;17.08;;;15.45;;
74908;SDS011;63468;52.058;4.824;2022-12-07T22:56:48;17.23;;;15.82;;
74908;SDS011;63468;52.058;4.824;2022-12-07T22:59:13;16.80;;;15.30;;
74908;SDS011;63468;52.058;4.824;2022-12-07T23:01:39;18.23;;;15.07;;
74908;SDS011;63468;52.058;4.824;2022-12-07T23:04:04;16.60;;;15.13;;
74908;SDS011;63468;52.058;4.824;2022-12-07T23:06:31;14.13;;;12.57;;
74908;SDS011;63468;52.058;4.824;2022-12-07T23:08:58;12.98;;;11.70;;
74908;SDS011;63468;52.058;4.824;2022-12-07T23:11:25;12.93;;;11.77;;
74908;SDS011;63468;52.058;4.824;2022-12-07T23:14:19;12.95;;;11.75;;
74908;SDS011;63468;52.058;4.824;2022-12-07T23:16:46;12.55;;;11.30;;
74908;SDS011;63468;52.058;4.824;2022-12-07T23:19:11;12.70;;;11.50;;
74908;SDS011;63468;52.058;4.824;2022-12-07T23:21:38;11.70;;;10.50;;
74908;SDS011;63468;52.058;4.824;2022-12-07T23:24:04;11.30;;;10.23;;
74908;SDS011;63468;52.058;4.824;2022-12-07T23:26:29;11.63;;;10.52;;
74908;SDS011;63468;52.058;4.824;2022-12-07T23:28:55;13.32;;;11.55;;
74908;SDS011;63468;52.058;4.824;2022-12-07T23:31:22;12.48;;;11.25;;
74908;SDS011;63468;52.058;4.824;2022-12-07T23:33:47;12.20;;;11.00;;
74908;SDS011;63468;52.058;4.824;2022-12-07T23:36:14;12.77;;;11.68;;
74908;SDS011;63468;52.058;4.824;2022-12-07T23:38:42;11.02;;;10.10;;
74908;SDS011;63468;52.058;4.824;2022-12-07T23:41:09;11.15;;;10.15;;
74908;SDS011;63468;52.058;4.824;2022-12-07T23:43:35;11.82;;;10.80;;
74908;SDS011;63468;52.058;4.824;2022-12-07T23:46:01;11.98;;;10.98;;
74908;SDS011;63468;52.058;4.824;2022-12-07T23:48:27;12.88;;;11.63;;
74908;SDS011;63468;52.058;4.824;2022-12-07T23:50:56;11.80;;;10.80;;
74908;SDS011;63468;52.058;4.824;2022-12-07T23:53:22;10.77;;;9.88;;
74908;SDS011;63468;52.058;4.824;2022-12-07T23:55:47;10.85;;;9.77;;
74908;SDS011;63468;52.058;4.824;2022-12-07T23:58:12;11.38;;;10.48;;
